Time;durP1;ratioP1;P1;durP2;ratioP2;P2;SDS_P1;SDS_P2;PMS_P1;PMS_P2;Temp;Humidity;BMP_temperature;BMP_pressure;BME280_temperature;BME280_humidity;BME280_pressure;Samples;Min_cycle;Max_cycle;Signal;HPM_P1;HPM_P2
2020/12/02 00:00:13;;;;;;;17.37;9.50;;;;;;;;;;5053004;28;20495;-70
2020/12/02 00:02:45;;;;;;;15.80;9.50;;;;;;;;;;5051563;28;20878;-68
2020/12/02 00:05:12;;;;;;;16.30;9.00;;;;;;;;;;5052452;28;20475;-70
2020/12/02 00:07:39;;;;;;;12.13;8.57;;;;;;;;;;5052823;28;20549;-70
2020/12/02 00:10:06;;;;;;;15.47;8.50;;;;;;;;;;5051851;28;20496;-70
2020/12/02 00:12:32;;;;;;;17.10;9.23;;;;;;;;;;5053567;28;20895;-70
2020/12/02 00:14:58;;;;;;;19.77;9.90;;;;;;;;;;5052718;28;20472;-71
2020/12/02 00:17:24;;;;;;;18.37;10.13;;;;;;;;;;5053543;28;20460;-71
2020/12/02 00:19:50;;;;;;;17.67;9.03;;;;;;;;;;5052568;28;20417;-70
2020/12/02 00:22:21;;;;;;;18.10;10.90;;;;;;;;;;5053783;28;20454;-69
2020/12/02 00:24:47;;;;;;;19.50;10.27;;;;;;;;;;5052651;28;20453;-69
2020/12/02 00:27:14;;;;;;;24.70;11.70;;;;;;;;;;5053433;28;20910;-70
2020/12/02 00:29:40;;;;;;;21.23;13.57;;;;;;;;;;5052459;28;20422;-70
2020/12/02 00:32:06;;;;;;;18.27;8.63;;;;;;;;;;5053045;28;20441;-69
2020/12/02 00:34:32;;;;;;;18.20;9.53;;;;;;;;;;5049660;28;20747;-70
2020/12/02 00:36:58;;;;;;;16.63;8.47;;;;;;;;;;5051165;28;20933;-70
2020/12/02 00:39:24;;;;;;;26.63;10.80;;;;;;;;;;5052539;28;20430;-70
2020/12/02 00:41:50;;;;;;;24.17;11.50;;;;;;;;;;5051840;28;20453;-70
2020/12/02 00:44:17;;;;;;;24.03;13.13;;;;;;;;;;5052213;28;20763;-71
2020/12/02 00:46:46;;;;;;;17.63;10.47;;;;;;;;;;5053350;28;20483;-69
2020/12/02 00:49:13;;;;;;;26.13;12.40;;;;;;;;;;5051204;28;20425;-69
2020/12/02 00:51:39;;;;;;;19.77;12.20;;;;;;;;;;5053059;28;20402;-69
2020/12/02 00:54:06;;;;;;;25.07;12.50;;;;;;;;;;5052325;28;20489;-70
2020/12/02 00:56:32;;;;;;;25.73;13.27;;;;;;;;;;5052927;28;20417;-71
2020/12/02 00:59:03;;;;;;;30.40;15.00;;;;;;;;;;5052987;28;21010;-71
2020/12/02 01:01:38;;;;;;;29.43;16.00;;;;;;;;;;5052132;28;20472;-70
2020/12/02 01:04:06;;;;;;;29.93;16.00;;;;;;;;;;5051700;28;20912;-69
2020/12/02 01:06:33;;;;;;;27.40;16.40;;;;;;;;;;5052889;28;20418;-71
2020/12/02 01:08:59;;;;;;;31.73;17.10;;;;;;;;;;5052761;28;20422;-69
2020/12/02 01:11:27;;;;;;;36.00;18.33;;;;;;;;;;5050881;28;20863;-69
2020/12/02 01:14:12;;;;;;;29.47;16.97;;;;;;;;;;5054325;28;20433;-69
2020/12/02 01:16:40;;;;;;;34.73;15.97;;;;;;;;;;5057072;28;20418;-69
2020/12/02 01:19:09;;;;;;;31.73;17.33;;;;;;;;;;5055803;28;20442;-69
2020/12/02 01:21:35;;;;;;;28.40;16.27;;;;;;;;;;5055608;28;20940;-69
2020/12/02 01:24:03;;;;;;;31.70;17.07;;;;;;;;;;5057021;28;20429;-70
2020/12/02 01:26:34;;;;;;;33.63;17.27;;;;;;;;;;5055824;28;20425;-70
2020/12/02 01:29:02;;;;;;;37.23;16.80;;;;;;;;;;5056971;28;20549;-70
2020/12/02 01:31:29;;;;;;;23.73;16.40;;;;;;;;;;5055672;28;20433;-69
2020/12/02 01:33:55;;;;;;;37.53;17.00;;;;;;;;;;5053364;28;20520;-69
2020/12/02 01:36:23;;;;;;;33.87;15.57;;;;;;;;;;5055296;28;20438;-70
2020/12/02 01:38:50;;;;;;;28.90;15.90;;;;;;;;;;5056531;28;20422;-70
2020/12/02 01:41:16;;;;;;;30.27;16.63;;;;;;;;;;5055531;28;20464;-69
2020/12/02 01:43:42;;;;;;;27.00;15.63;;;;;;;;;;5056440;28;20467;-69
2020/12/02 01:46:16;;;;;;;31.40;16.17;;;;;;;;;;5055205;28;20517;-70
2020/12/02 01:49:12;;;;;;;29.20;18.27;;;;;;;;;;5056537;28;20500;-70
2020/12/02 01:51:49;;;;;;;28.50;14.90;;;;;;;;;;5037477;28;20503;-70
2020/12/02 01:54:21;;;;;;;31.00;17.23;;;;;;;;;;5055293;28;20460;-70
2020/12/02 01:56:50;;;;;;;30.50;17.33;;;;;;;;;;5055923;28;20417;-70
2020/12/02 01:59:19;;;;;;;37.63;18.03;;;;;;;;;;5056146;28;20431;-70
2020/12/02 02:01:57;;;;;;;28.90;15.93;;;;;;;;;;5055066;28;20791;-70
2020/12/02 02:04:27;;;;;;;27.23;14.27;;;;;;;;;;5056044;28;20413;-69
2020/12/02 02:06:59;;;;;;;32.00;16.50;;;;;;;;;;5056095;28;20425;-70
2020/12/02 02:09:26;;;;;;;31.27;17.87;;;;;;;;;;5055538;28;20802;-68
2020/12/02 02:12:00;;;;;;;34.80;18.30;;;;;;;;;;5055786;28;20776;-70
2020/12/02 02:14:38;;;;;;;30.20;16.27;;;;;;;;;;5055743;28;20951;-68
2020/12/02 02:17:04;;;;;;;27.80;14.67;;;;;;;;;;5036027;28;20485;-70
2020/12/02 02:19:30;;;;;;;27.07;16.00;;;;;;;;;;5037657;28;20422;-68
2020/12/02 02:21:58;;;;;;;29.43;13.67;;;;;;;;;;5055827;28;20453;-70
2020/12/02 02:24:24;;;;;;;22.63;14.80;;;;;;;;;;5052348;28;20426;-70
2020/12/02 02:26:51;;;;;;;27.07;14.73;;;;;;;;;;5052514;28;20422;-70
2020/12/02 02:29:20;;;;;;;29.97;17.13;;;;;;;;;;5055832;28;20918;-70
2020/12/02 02:31:46;;;;;;;30.63;15.87;;;;;;;;;;5054689;28;20453;-70
2020/12/02 02:34:13;;;;;;;35.77;15.73;;;;;;;;;;5055591;28;20448;-70
2020/12/02 02:36:39;;;;;;;33.03;13.00;;;;;;;;;;5050411;28;20438;-70
2020/12/02 02:39:06;;;;;;;26.97;15.80;;;;;;;;;;5055624;28;20430;-70
2020/12/02 02:41:33;;;;;;;30.07;14.70;;;;;;;;;;5054627;28;20815;-70
2020/12/02 02:43:59;;;;;;;24.33;13.57;;;;;;;;;;5055424;28;21004;-69
2020/12/02 02:46:25;;;;;;;27.93;13.40;;;;;;;;;;5054515;28;20426;-69
2020/12/02 02:48:51;;;;;;;26.77;14.37;;;;;;;;;;5055752;28;20434;-69
2020/12/02 02:51:17;;;;;;;26.10;13.97;;;;;;;;;;5045850;28;20426;-69
2020/12/02 02:53:43;;;;;;;23.63;14.10;;;;;;;;;;5035207;28;20410;-69
2020/12/02 02:56:11;;;;;;;26.53;14.67;;;;;;;;;;5042367;28;20778;-69
2020/12/02 02:58:37;;;;;;;32.93;14.63;;;;;;;;;;5054251;28;20561;-69
2020/12/02 03:01:03;;;;;;;23.00;12.23;;;;;;;;;;5054196;28;20433;-69
2020/12/02 03:03:30;;;;;;;27.97;15.37;;;;;;;;;;5054805;28;20445;-69
2020/12/02 03:05:57;;;;;;;27.07;13.97;;;;;;;;;;5053871;28;20426;-70
2020/12/02 03:08:24;;;;;;;31.37;13.97;;;;;;;;;;5055093;28;20517;-70
2020/12/02 03:10:50;;;;;;;23.10;13.87;;;;;;;;;;5036518;28;20434;-69
2020/12/02 03:13:20;;;;;;;26.30;13.53;;;;;;;;;;5054801;28;20401;-69
2020/12/02 03:15:46;;;;;;;32.53;14.90;;;;;;;;;;5077354;22;20461;-73
2020/12/02 03:18:13;;;;;;;25.90;12.70;;;;;;;;;;5093533;28;20460;-73
2020/12/02 03:20:41;;;;;;;31.97;16.50;;;;;;;;;;5093844;28;20421;-72
2020/12/02 03:23:13;;;;;;;21.40;13.47;;;;;;;;;;5094792;28;20451;-72
2020/12/02 03:25:39;;;;;;;28.07;16.10;;;;;;;;;;5091028;28;20515;-72
2020/12/02 03:28:05;;;;;;;24.87;14.80;;;;;;;;;;5074162;28;20425;-72
2020/12/02 03:30:32;;;;;;;20.40;13.60;;;;;;;;;;5074153;28;20416;-72
2020/12/02 03:32:58;;;;;;;23.67;13.57;;;;;;;;;;5088211;28;20428;-72
2020/12/02 03:35:25;;;;;;;34.17;15.53;;;;;;;;;;5093479;28;20553;-72
2020/12/02 03:37:51;;;;;;;28.57;14.03;;;;;;;;;;5079607;28;20468;-72
2020/12/02 03:40:17;;;;;;;28.93;15.40;;;;;;;;;;5079158;28;20799;-72
2020/12/02 03:42:43;;;;;;;27.87;14.40;;;;;;;;;;5085693;28;20998;-72
2020/12/02 03:45:10;;;;;;;29.63;14.70;;;;;;;;;;5094046;28;20435;-72
2020/12/02 03:47:36;;;;;;;26.63;13.13;;;;;;;;;;5092909;28;20505;-72
2020/12/02 03:50:04;;;;;;;23.90;13.70;;;;;;;;;;5094433;28;20954;-72
2020/12/02 03:52:30;;;;;;;28.13;13.87;;;;;;;;;;5091366;28;21019;-73
2020/12/02 03:54:56;;;;;;;28.57;14.77;;;;;;;;;;5092779;28;20519;-72
2020/12/02 03:57:22;;;;;;;29.10;13.50;;;;;;;;;;5092536;28;20527;-72
2020/12/02 03:59:48;;;;;;;26.83;15.33;;;;;;;;;;5093989;28;20443;-72
2020/12/02 04:02:14;;;;;;;29.63;13.30;;;;;;;;;;5092443;28;20462;-72
2020/12/02 04:04:40;;;;;;;22.33;12.83;;;;;;;;;;5093840;28;20420;-72
2020/12/02 04:07:06;;;;;;;25.00;15.63;;;;;;;;;;5092055;28;20440;-72
2020/12/02 04:09:32;;;;;;;36.63;15.57;;;;;;;;;;5093554;28;20442;-72
2020/12/02 04:11:58;;;;;;;27.40;13.13;;;;;;;;;;5092724;28;20455;-72
2020/12/02 04:14:24;;;;;;;28.97;14.97;;;;;;;;;;5092242;28;20416;-72
2020/12/02 04:16:50;;;;;;;27.83;15.17;;;;;;;;;;5092096;28;20488;-72
2020/12/02 04:19:16;;;;;;;24.30;13.07;;;;;;;;;;5093485;28;20409;-72
2020/12/02 04:21:42;;;;;;;23.80;13.30;;;;;;;;;;5092354;28;20922;-72
2020/12/02 04:24:08;;;;;;;24.63;13.30;;;;;;;;;;5093697;28;20772;-72
2020/12/02 04:26:34;;;;;;;29.73;14.47;;;;;;;;;;5092130;28;22451;-72
2020/12/02 04:29:00;;;;;;;23.70;13.23;;;;;;;;;;5092036;28;20430;-72
2020/12/02 04:31:26;;;;;;;18.80;10.00;;;;;;;;;;5091871;28;20410;-71
2020/12/02 04:33:52;;;;;;;26.90;13.07;;;;;;;;;;5093187;28;20404;-72
2020/12/02 04:36:18;;;;;;;29.67;13.70;;;;;;;;;;5092564;28;20473;-72
2020/12/02 04:38:44;;;;;;;29.07;13.67;;;;;;;;;;5089931;28;20499;-72
2020/12/02 04:41:16;;;;;;;23.77;12.30;;;;;;;;;;5088038;28;20474;-72
2020/12/02 04:43:43;;;;;;;27.07;13.37;;;;;;;;;;5091893;28;20423;-72
2020/12/02 04:46:14;;;;;;;29.47;13.43;;;;;;;;;;5093703;28;20424;-72
2020/12/02 04:48:41;;;;;;;28.70;16.27;;;;;;;;;;5091424;28;20481;-72
2020/12/02 04:51:19;;;;;;;38.47;14.60;;;;;;;;;;5093229;28;20411;-72
2020/12/02 04:53:47;;;;;;;40.17;16.03;;;;;;;;;;5091865;28;20435;-72
2020/12/02 04:56:13;;;;;;;40.70;17.70;;;;;;;;;;5093094;28;20420;-72
2020/12/02 04:58:40;;;;;;;31.93;14.10;;;;;;;;;;5091739;28;20512;-72
2020/12/02 05:01:32;;;;;;;36.87;15.67;;;;;;;;;;5093121;28;20896;-72
2020/12/02 05:04:06;;;;;;;41.03;16.17;;;;;;;;;;5069811;28;20495;-72
2020/12/02 05:06:35;;;;;;;34.20;14.07;;;;;;;;;;5072770;28;20452;-72
2020/12/02 05:09:11;;;;;;;34.63;14.00;;;;;;;;;;5072819;28;20390;-72
2020/12/02 05:11:38;;;;;;;39.57;16.37;;;;;;;;;;5072510;28;20408;-72
2020/12/02 05:14:05;;;;;;;36.80;15.07;;;;;;;;;;5093393;28;20582;-72
2020/12/02 05:16:32;;;;;;;46.33;18.03;;;;;;;;;;5093449;28;20451;-72
2020/12/02 05:18:59;;;;;;;39.20;15.67;;;;;;;;;;5095471;28;20412;-73
2020/12/02 05:21:29;;;;;;;37.70;16.97;;;;;;;;;;5098502;28;20447;-72
2020/12/02 05:24:02;;;;;;;36.90;19.20;;;;;;;;;;5098247;28;20416;-72
2020/12/02 05:26:33;;;;;;;37.27;18.20;;;;;;;;;;5096896;28;20432;-72
2020/12/02 05:28:59;;;;;;;35.30;15.40;;;;;;;;;;5072411;28;20421;-72
2020/12/02 05:31:28;;;;;;;38.90;16.73;;;;;;;;;;5072468;28;20500;-71
2020/12/02 05:34:05;;;;;;;45.37;16.83;;;;;;;;;;5091358;28;20424;-72
2020/12/02 05:36:33;;;;;;;34.80;14.70;;;;;;;;;;5089855;28;20530;-71
2020/12/02 05:38:59;;;;;;;21.30;12.20;;;;;;;;;;5091718;28;20453;-72
2020/12/02 05:41:25;;;;;;;28.90;14.40;;;;;;;;;;5078309;28;20980;-71
2020/12/02 05:43:51;;;;;;;24.87;13.87;;;;;;;;;;5089366;28;20458;-72
2020/12/02 05:46:25;;;;;;;21.27;12.30;;;;;;;;;;5092366;28;20467;-72
2020/12/02 05:48:59;;;;;;;27.27;11.80;;;;;;;;;;5091180;28;20496;-72
2020/12/02 05:51:25;;;;;;;29.77;12.70;;;;;;;;;;5092698;28;20397;-72
2020/12/02 05:53:53;;;;;;;25.90;13.33;;;;;;;;;;5088511;28;20420;-72
2020/12/02 05:56:19;;;;;;;28.20;13.83;;;;;;;;;;5092579;28;20862;-72
2020/12/02 05:58:45;;;;;;;25.70;12.83;;;;;;;;;;5091118;28;20424;-72
2020/12/02 06:01:15;;;;;;;38.90;15.93;;;;;;;;;;5094151;28;20492;-72
2020/12/02 06:03:41;;;;;;;28.80;14.20;;;;;;;;;;5094811;28;20523;-72
2020/12/02 06:06:12;;;;;;;36.90;17.27;;;;;;;;;;5096312;28;20799;-74
2020/12/02 06:08:50;;;;;;;40.80;18.97;;;;;;;;;;5095110;28;20886;-74
2020/12/02 06:11:16;;;;;;;28.73;14.23;;;;;;;;;;5095333;28;20853;-72
2020/12/02 06:14:14;;;;;;;33.20;14.83;;;;;;;;;;5095384;28;20455;-73
2020/12/02 06:16:47;;;;;;;34.40;14.90;;;;;;;;;;5051031;28;20460;-72
2020/12/02 06:19:18;;;;;;;25.30;13.13;;;;;;;;;;5080320;28;20855;-74
2020/12/02 06:21:52;;;;;;;29.40;13.57;;;;;;;;;;5086006;28;20466;-73
2020/12/02 06:24:31;;;;;;;29.80;13.37;;;;;;;;;;5095026;28;20477;-72
2020/12/02 06:26:57;;;;;;;34.83;15.47;;;;;;;;;;5095836;28;20779;-73
2020/12/02 06:29:26;;;;;;;30.83;15.60;;;;;;;;;;5093064;28;20423;-73
2020/12/02 06:31:56;;;;;;;25.87;13.93;;;;;;;;;;5094444;28;20775;-73
2020/12/02 06:34:23;;;;;;;34.10;16.57;;;;;;;;;;5095301;28;20436;-73
2020/12/02 06:37:08;;;;;;;33.63;16.40;;;;;;;;;;5095788;28;20427;-73
2020/12/02 06:39:37;;;;;;;36.20;16.60;;;;;;;;;;5094409;28;20460;-73
2020/12/02 06:42:15;;;;;;;33.87;15.73;;;;;;;;;;5092937;28;21074;-73
2020/12/02 06:44:57;;;;;;;27.97;14.13;;;;;;;;;;5092210;28;20489;-72
2020/12/02 06:47:25;;;;;;;26.50;13.57;;;;;;;;;;5095327;28;20420;-73
2020/12/02 06:49:53;;;;;;;32.73;15.20;;;;;;;;;;5094225;28;20420;-73
2020/12/02 06:52:29;;;;;;;35.30;15.90;;;;;;;;;;5095374;28;20549;-72
2020/12/02 06:55:00;;;;;;;31.77;15.47;;;;;;;;;;5094114;28;20525;-72
2020/12/02 06:57:27;;;;;;;38.07;17.43;;;;;;;;;;5095223;28;20424;-72
2020/12/02 07:00:00;;;;;;;34.23;14.93;;;;;;;;;;5094108;28;20484;-72
2020/12/02 07:02:39;;;;;;;34.67;17.17;;;;;;;;;;5093682;28;20451;-72
2020/12/02 07:05:08;;;;;;;39.53;17.87;;;;;;;;;;5094088;28;20428;-72
2020/12/02 07:07:34;;;;;;;36.33;15.17;;;;;;;;;;5095218;28;20527;-73
2020/12/02 07:10:00;;;;;;;41.37;17.50;;;;;;;;;;5094120;28;20432;-72
2020/12/02 07:12:28;;;;;;;38.77;15.00;;;;;;;;;;5094587;28;20432;-72
2020/12/02 07:14:58;;;;;;;33.37;16.73;;;;;;;;;;5093658;28;20884;-73
2020/12/02 07:17:24;;;;;;;33.17;16.40;;;;;;;;;;5094624;28;20501;-72
2020/12/02 07:19:52;;;;;;;34.67;16.57;;;;;;;;;;5093226;28;20428;-72
2020/12/02 07:22:20;;;;;;;31.37;15.83;;;;;;;;;;5094748;28;20451;-72
2020/12/02 07:24:51;;;;;;;29.80;16.83;;;;;;;;;;5093715;28;20770;-72
2020/12/02 07:27:19;;;;;;;42.27;17.53;;;;;;;;;;5093458;28;20447;-73
2020/12/02 07:29:45;;;;;;;34.60;16.27;;;;;;;;;;5093423;28;20428;-72
2020/12/02 07:32:22;;;;;;;39.73;16.87;;;;;;;;;;5094644;28;20931;-72
2020/12/02 07:34:48;;;;;;;37.47;17.60;;;;;;;;;;5093549;28;20967;-73
2020/12/02 07:37:15;;;;;;;36.17;16.20;;;;;;;;;;5094965;28;20946;-72
2020/12/02 07:39:50;;;;;;;42.60;15.70;;;;;;;;;;5094146;28;20523;-72
2020/12/02 07:42:18;;;;;;;34.03;16.13;;;;;;;;;;5094590;28;20937;-72
2020/12/02 07:44:48;;;;;;;34.80;16.40;;;;;;;;;;5088643;28;20782;-72
2020/12/02 07:47:15;;;;;;;40.93;14.40;;;;;;;;;;5093530;28;20435;-73
2020/12/02 07:49:44;;;;;;;37.37;16.77;;;;;;;;;;5091671;28;20432;-73
2020/12/02 07:52:30;;;;;;;39.87;17.50;;;;;;;;;;5094457;28;20412;-72
2020/12/02 07:54:57;;;;;;;42.80;17.50;;;;;;;;;;5093092;28;20509;-73
2020/12/02 07:57:24;;;;;;;31.13;15.40;;;;;;;;;;5093921;28;20756;-72
2020/12/02 08:00:09;;;;;;;25.10;13.97;;;;;;;;;;5092612;28;20467;-72
2020/12/02 08:02:38;;;;;;;28.20;14.53;;;;;;;;;;5073624;28;20467;-73
2020/12/02 08:05:17;;;;;;;28.13;13.70;;;;;;;;;;5089960;28;20428;-73
2020/12/02 08:07:46;;;;;;;25.90;13.57;;;;;;;;;;5092557;28;20462;-73
2020/12/02 08:10:22;;;;;;;25.87;12.30;;;;;;;;;;5091151;28;20420;-73
2020/12/02 08:12:48;;;;;;;28.80;13.60;;;;;;;;;;5093948;28;20902;-73
2020/12/02 08:15:14;;;;;;;36.30;15.07;;;;;;;;;;5092530;28;20999;-73
2020/12/02 08:17:41;;;;;;;26.40;12.10;;;;;;;;;;5094075;28;20485;-73
2020/12/02 08:20:22;;;;;;;29.03;13.33;;;;;;;;;;5092813;28;20463;-72
2020/12/02 08:22:50;;;;;;;27.50;13.57;;;;;;;;;;5093624;28;20455;-72
2020/12/02 08:25:22;;;;;;;20.67;11.77;;;;;;;;;;5092413;28;20460;-73
2020/12/02 08:27:49;;;;;;;28.30;13.17;;;;;;;;;;5093720;28;20424;-73
2020/12/02 08:30:18;;;;;;;21.20;9.83;;;;;;;;;;5091823;28;20466;-73
2020/12/02 08:32:47;;;;;;;23.40;10.27;;;;;;;;;;5093391;28;20831;-73
2020/12/02 08:35:20;;;;;;;26.63;11.73;;;;;;;;;;5087230;28;20523;-72
2020/12/02 08:37:51;;;;;;;26.50;11.43;;;;;;;;;;5088787;28;20443;-72
2020/12/02 08:40:22;;;;;;;20.03;10.13;;;;;;;;;;5091498;28;20488;-72
2020/12/02 08:42:48;;;;;;;24.57;12.67;;;;;;;;;;5076295;28;20497;-72
2020/12/02 08:45:20;;;;;;;20.67;10.47;;;;;;;;;;5075984;28;20452;-73
2020/12/02 08:47:53;;;;;;;30.23;12.03;;;;;;;;;;5086529;28;20440;-72
2020/12/02 08:50:27;;;;;;;26.10;13.40;;;;;;;;;;5089644;28;20420;-73
2020/12/02 08:52:54;;;;;;;24.67;11.23;;;;;;;;;;5091788;28;20403;-73
2020/12/02 08:55:21;;;;;;;17.67;10.50;;;;;;;;;;5084489;28;20771;-70
2020/12/02 08:57:47;;;;;;;17.50;10.70;;;;;;;;;;5072535;28;20449;-70
2020/12/02 09:00:14;;;;;;;29.77;13.97;;;;;;;;;;5080049;28;20511;-72
2020/12/02 09:02:40;;;;;;;23.27;10.43;;;;;;;;;;5078135;28;20512;-72
2020/12/02 09:05:06;;;;;;;23.97;10.30;;;;;;;;;;5085146;28;20460;-71
2020/12/02 09:07:32;;;;;;;23.83;10.97;;;;;;;;;;5078189;28;20466;-72
2020/12/02 09:09:58;;;;;;;24.97;10.97;;;;;;;;;;5078939;28;20424;-71
2020/12/02 09:12:24;;;;;;;27.63;9.33;;;;;;;;;;5079793;28;20427;-74
2020/12/02 09:14:51;;;;;;;23.63;9.90;;;;;;;;;;5077887;28;20422;-76
2020/12/02 09:17:17;;;;;;;17.77;9.90;;;;;;;;;;5076555;28;20969;-74
2020/12/02 09:19:43;;;;;;;24.52;11.75;;;;;;;;;;5078610;28;20428;-72
2020/12/02 09:22:09;;;;;;;24.55;13.18;;;;;;;;;;5080299;28;20429;-74
2020/12/02 09:24:35;;;;;;;20.57;9.87;;;;;;;;;;5077753;28;20179;-74
2020/12/02 09:27:01;;;;;;;20.58;10.95;;;;;;;;;;5081153;28;20408;-74
2020/12/02 09:29:27;;;;;;;23.55;11.80;;;;;;;;;;5080741;28;20437;-71
2020/12/02 09:31:53;;;;;;;21.37;10.50;;;;;;;;;;5077463;28;20173;-71
2020/12/02 09:34:19;;;;;;;18.40;10.17;;;;;;;;;;5074469;28;20428;-72
2020/12/02 09:36:46;;;;;;;22.60;10.77;;;;;;;;;;5083018;28;20947;-72
2020/12/02 09:39:12;;;;;;;22.83;11.13;;;;;;;;;;5082887;28;20403;-73
2020/12/02 09:41:56;;;;;;;26.63;10.90;;;;;;;;;;5084268;28;20832;-73
2020/12/02 09:44:29;;;;;;;24.77;11.17;;;;;;;;;;5081117;28;20415;-75
2020/12/02 09:47:22;;;;;;;29.00;11.07;;;;;;;;;;5080174;28;20555;-75
2020/12/02 09:49:51;;;;;;;22.23;9.93;;;;;;;;;;5079877;28;20425;-76
2020/12/02 09:52:26;;;;;;;30.60;12.80;;;;;;;;;;5082783;28;20523;-75
2020/12/02 09:54:52;;;;;;;19.97;11.07;;;;;;;;;;5082926;28;20427;-71
2020/12/02 09:57:26;;;;;;;22.33;11.50;;;;;;;;;;5083912;28;20427;-71
2020/12/02 09:59:59;;;;;;;26.57;11.60;;;;;;;;;;5082938;28;20771;-72
2020/12/02 10:02:38;;;;;;;24.50;12.20;;;;;;;;;;5081448;28;20456;-75
2020/12/02 10:05:22;;;;;;;21.77;10.67;;;;;;;;;;5076421;28;20467;-74
2020/12/02 10:08:07;;;;;;;24.10;11.27;;;;;;;;;;5078663;28;20463;-77
2020/12/02 10:10:51;;;;;;;28.30;12.65;;;;;;;;;;5081958;28;20753;-72
2020/12/02 10:13:17;;;;;;;27.07;11.67;;;;;;;;;;5080888;28;20202;-75
2020/12/02 10:15:57;;;;;;;21.90;10.60;;;;;;;;;;5077128;28;20457;-76
2020/12/02 10:18:26;;;;;;;26.77;13.50;;;;;;;;;;5091234;22;20454;-71
2020/12/02 10:21:00;;;;;;;27.87;13.60;;;;;;;;;;5061164;28;20507;-70
2020/12/02 10:23:26;;;;;;;22.93;12.67;;;;;;;;;;5055236;28;20989;-69
2020/12/02 10:26:07;;;;;;;18.43;10.13;;;;;;;;;;5067555;28;20515;-69
2020/12/02 10:29:00;;;;;;;26.70;11.70;;;;;;;;;;5074917;28;20428;-70
2020/12/02 10:31:32;;;;;;;24.00;8.60;;;;;;;;;;5051596;28;20449;-69
2020/12/02 10:34:02;;;;;;;19.90;11.47;;;;;;;;;;5054748;28;20403;-69
2020/12/02 10:36:30;;;;;;;25.97;12.13;;;;;;;;;;5054152;28;20430;-69
2020/12/02 10:38:58;;;;;;;27.73;12.10;;;;;;;;;;5056565;28;20452;-70
2020/12/02 10:41:24;;;;;;;21.53;10.87;;;;;;;;;;5069269;28;20469;-69
2020/12/02 10:44:06;;;;;;;17.63;10.10;;;;;;;;;;5074425;28;20754;-69
2020/12/02 10:46:57;;;;;;;23.63;11.37;;;;;;;;;;5054361;28;20429;-69
2020/12/02 10:49:32;;;;;;;30.33;11.37;;;;;;;;;;5048930;28;20961;-70
2020/12/02 10:51:59;;;;;;;24.63;10.50;;;;;;;;;;5052329;28;20416;-69
2020/12/02 10:54:27;;;;;;;23.27;10.77;;;;;;;;;;5053729;28;20402;-70
2020/12/02 10:56:56;;;;;;;24.67;12.43;;;;;;;;;;5051747;28;20536;-69
2020/12/02 10:59:23;;;;;;;18.10;9.70;;;;;;;;;;5051946;28;20418;-69
2020/12/02 11:01:49;;;;;;;22.70;11.33;;;;;;;;;;5055594;28;20464;-69
2020/12/02 11:04:17;;;;;;;25.67;12.40;;;;;;;;;;5055907;28;20414;-72
2020/12/02 11:07:02;;;;;;;22.03;11.77;;;;;;;;;;5058222;28;20422;-69
2020/12/02 11:09:47;;;;;;;26.73;12.80;;;;;;;;;;5042589;28;20772;-69
2020/12/02 11:12:13;;;;;;;25.63;13.17;;;;;;;;;;5055971;28;20412;-69
2020/12/02 11:15:01;;;;;;;21.87;11.40;;;;;;;;;;5060232;28;20517;-69
2020/12/02 11:17:27;;;;;;;27.03;13.30;;;;;;;;;;5053375;28;20465;-69
2020/12/02 11:20:02;;;;;;;27.00;13.67;;;;;;;;;;5056837;28;20881;-69
2020/12/02 11:22:31;;;;;;;25.97;12.40;;;;;;;;;;5055346;28;20488;-69
2020/12/02 11:25:15;;;;;;;20.60;11.27;;;;;;;;;;5056642;28;20434;-69
2020/12/02 11:27:42;;;;;;;23.73;12.10;;;;;;;;;;5054006;28;20446;-69
2020/12/02 11:30:12;;;;;;;17.43;9.87;;;;;;;;;;5053806;28;20492;-69
2020/12/02 11:32:58;;;;;;;30.90;13.50;;;;;;;;;;5056155;28;20414;-69
2020/12/02 11:35:42;;;;;;;29.00;14.50;;;;;;;;;;5053502;28;20418;-69
2020/12/02 11:38:17;;;;;;;42.20;14.23;;;;;;;;;;5049990;28;20481;-69
2020/12/02 11:40:47;;;;;;;23.53;12.03;;;;;;;;;;5053203;28;20511;-69
2020/12/02 11:43:24;;;;;;;30.43;14.20;;;;;;;;;;5053079;28;20445;-69
2020/12/02 11:45:52;;;;;;;31.60;14.53;;;;;;;;;;5051847;28;20450;-69
2020/12/02 11:48:37;;;;;;;28.57;14.10;;;;;;;;;;5051821;28;20445;-69
2020/12/02 11:51:12;;;;;;;22.13;12.40;;;;;;;;;;5043544;28;20520;-69
2020/12/02 11:53:38;;;;;;;29.17;14.40;;;;;;;;;;5051597;28;20805;-69
2020/12/02 11:56:04;;;;;;;30.63;11.87;;;;;;;;;;5052954;28;20818;-69
2020/12/02 11:58:31;;;;;;;20.30;10.20;;;;;;;;;;5049707;28;20429;-69
2020/12/02 12:01:01;;;;;;;22.37;13.10;;;;;;;;;;5053605;28;20749;-69
2020/12/02 12:03:33;;;;;;;30.47;12.77;;;;;;;;;;5049575;28;20446;-69
2020/12/02 12:05:59;;;;;;;30.30;13.90;;;;;;;;;;5046661;28;20427;-69
2020/12/02 12:08:44;;;;;;;28.70;13.20;;;;;;;;;;5051659;28;20472;-69
2020/12/02 12:11:14;;;;;;;31.50;13.90;;;;;;;;;;5047695;28;20425;-69
2020/12/02 12:13:42;;;;;;;24.50;14.73;;;;;;;;;;5051798;28;21766;-70
2020/12/02 12:16:40;;;;;;;28.00;12.47;;;;;;;;;;5049678;28;20414;-69
2020/12/02 12:19:20;;;;;;;26.60;12.17;;;;;;;;;;5029735;28;20938;-69
2020/12/02 12:21:58;;;;;;;25.00;12.93;;;;;;;;;;5048448;28;20483;-69
2020/12/02 12:24:24;;;;;;;29.57;14.60;;;;;;;;;;5052385;28;20467;-69
2020/12/02 12:26:51;;;;;;;38.40;13.93;;;;;;;;;;5051096;28;20425;-70
2020/12/02 12:29:17;;;;;;;22.30;12.23;;;;;;;;;;5052081;28;20430;-69
2020/12/02 12:31:52;;;;;;;26.40;13.50;;;;;;;;;;5052540;28;20428;-69
2020/12/02 12:34:29;;;;;;;27.53;13.60;;;;;;;;;;5048955;28;20425;-69
2020/12/02 12:36:58;;;;;;;27.00;12.77;;;;;;;;;;5054049;28;20456;-68
2020/12/02 12:39:28;;;;;;;28.47;12.13;;;;;;;;;;5053333;28;20510;-69
2020/12/02 12:41:54;;;;;;;27.47;13.97;;;;;;;;;;5067126;28;20456;-69
2020/12/02 12:44:33;;;;;;;26.70;12.97;;;;;;;;;;5073983;28;20702;-69
2020/12/02 12:47:02;;;;;;;25.20;14.00;;;;;;;;;;5072785;28;20870;-68
2020/12/02 12:49:29;;;;;;;31.73;15.07;;;;;;;;;;5073923;28;20455;-69
2020/12/02 12:51:56;;;;;;;23.80;12.83;;;;;;;;;;5067331;28;20986;-69
2020/12/02 12:54:22;;;;;;;27.23;14.27;;;;;;;;;;5033480;28;20430;-69
2020/12/02 12:56:52;;;;;;;25.50;14.30;;;;;;;;;;5067434;28;20459;-68
2020/12/02 12:59:18;;;;;;;25.00;14.23;;;;;;;;;;5072483;28;20436;-67
2020/12/02 13:01:47;;;;;;;26.60;14.63;;;;;;;;;;5067382;28;20890;-68
2020/12/02 13:04:14;;;;;;;27.77;13.70;;;;;;;;;;5073169;28;20441;-68
2020/12/02 13:06:41;;;;;;;26.43;12.00;;;;;;;;;;5054046;28;20948;-68
2020/12/02 13:09:27;;;;;;;28.77;14.00;;;;;;;;;;5048697;28;20872;-68
2020/12/02 13:11:59;;;;;;;26.90;12.40;;;;;;;;;;5039314;28;20457;-68
2020/12/02 13:14:34;;;;;;;26.27;13.90;;;;;;;;;;5054719;28;20437;-70
2020/12/02 13:17:11;;;;;;;29.30;15.30;;;;;;;;;;5051786;28;20506;-68
2020/12/02 13:19:43;;;;;;;27.57;13.73;;;;;;;;;;5052257;28;20429;-68
2020/12/02 13:22:15;;;;;;;28.70;14.53;;;;;;;;;;5070560;28;20468;-68
2020/12/02 13:24:44;;;;;;;31.10;15.37;;;;;;;;;;5053484;28;20398;-68
2020/12/02 13:27:16;;;;;;;29.67;14.57;;;;;;;;;;5056941;28;20441;-68
2020/12/02 13:29:45;;;;;;;32.23;14.27;;;;;;;;;;5055223;28;20433;-69
2020/12/02 13:32:11;;;;;;;23.70;13.70;;;;;;;;;;5056746;28;20456;-68
2020/12/02 13:34:37;;;;;;;26.93;14.23;;;;;;;;;;5055085;28;20410;-68
2020/12/02 13:37:03;;;;;;;26.90;15.20;;;;;;;;;;5052504;28;20422;-70
2020/12/02 13:39:29;;;;;;;27.33;13.00;;;;;;;;;;5054367;28;20926;-68
2020/12/02 13:41:59;;;;;;;29.03;14.80;;;;;;;;;;5056285;28;20493;-69
2020/12/02 13:44:46;;;;;;;27.27;13.80;;;;;;;;;;5052937;28;20437;-69
2020/12/02 13:47:12;;;;;;;25.47;12.00;;;;;;;;;;5017746;28;20430;-74
2020/12/02 13:49:39;;;;;;;28.13;13.03;;;;;;;;;;5054307;28;20894;-68
2020/12/02 13:52:23;;;;;;;32.92;17.83;;;;;;;;;;5034506;28;20442;-69
2020/12/02 13:55:01;;;;;;;31.53;14.73;;;;;;;;;;5037397;28;20274;-73
2020/12/02 13:57:39;;;;;;;26.93;13.43;;;;;;;;;;5054131;28;20962;-71
2020/12/02 14:00:11;;;;;;;31.03;13.67;;;;;;;;;;5053725;28;20560;-69
2020/12/02 14:02:46;;;;;;;23.60;13.10;;;;;;;;;;5055752;28;20457;-75
2020/12/02 14:05:30;;;;;;;30.03;12.20;;;;;;;;;;5054853;28;20421;-73
2020/12/02 14:07:57;;;;;;;29.77;13.90;;;;;;;;;;5056877;28;20417;-70
2020/12/02 14:10:23;;;;;;;26.73;13.30;;;;;;;;;;5053750;28;20402;-71
2020/12/02 14:12:49;;;;;;;30.60;14.10;;;;;;;;;;5053805;28;20426;-72
2020/12/02 14:15:18;;;;;;;28.10;14.20;;;;;;;;;;5050688;28;20406;-72
2020/12/02 14:17:44;;;;;;;34.90;14.17;;;;;;;;;;5054690;28;20984;-73
2020/12/02 14:20:10;;;;;;;20.77;11.63;;;;;;;;;;5055439;28;21067;-72
2020/12/02 14:22:40;;;;;;;29.37;12.53;;;;;;;;;;5035474;28;20485;-76
2020/12/02 14:25:08;;;;;;;24.40;13.93;;;;;;;;;;5035504;28;20940;-74
2020/12/02 14:27:35;;;;;;;27.07;12.67;;;;;;;;;;5071124;28;20453;-74
2020/12/02 14:30:05;;;;;;;32.17;13.40;;;;;;;;;;5076719;28;20397;-72
2020/12/02 14:32:31;;;;;;;22.73;12.67;;;;;;;;;;5058480;28;20481;-74
2020/12/02 14:34:57;;;;;;;35.90;13.73;;;;;;;;;;5054753;28;20497;-73